createdAt,value
2019-03-18T00:00:31.385Z,99.90
2019-03-18T00:03:00.296Z,99.90
2019-03-18T00:05:29.056Z,99.90
2019-03-18T00:07:57.733Z,99.90
2019-03-18T00:10:26.388Z,99.90
2019-03-18T00:12:54.927Z,99.90
2019-03-18T00:15:23.582Z,99.90
2019-03-18T00:17:52.056Z,99.90
2019-03-18T00:20:20.578Z,99.90
2019-03-18T00:22:49.111Z,99.90
2019-03-18T00:25:17.727Z,99.90
2019-03-18T00:27:46.247Z,99.90
2019-03-18T00:30:16.136Z,99.90
2019-03-18T00:32:44.651Z,99.90
2019-03-18T00:35:13.249Z,99.90
2019-03-18T00:37:41.843Z,99.90
2019-03-18T00:40:15.055Z,99.90
2019-03-18T00:42:43.575Z,99.90
2019-03-18T00:45:15.098Z,99.90
2019-03-18T00:47:42.956Z,99.90
2019-03-18T00:50:16.829Z,99.90
2019-03-18T00:52:45.500Z,99.90
2019-03-18T00:55:14.473Z,99.90
2019-03-18T00:57:43.082Z,99.90
2019-03-18T01:00:18.398Z,99.90
2019-03-18T01:02:49.459Z,99.90
2019-03-18T01:05:17.703Z,99.90
2019-03-18T01:07:46.176Z,99.90
2019-03-18T01:10:15.940Z,99.90
2019-03-18T01:12:44.532Z,99.90
2019-03-18T01:15:13.419Z,99.90
2019-03-18T01:17:42.086Z,99.90
2019-03-18T01:20:14.434Z,99.90
2019-03-18T01:22:43.041Z,99.90
2019-03-18T01:25:11.711Z,99.90
2019-03-18T01:27:40.672Z,99.90
2019-03-18T01:30:15.490Z,99.90
2019-03-18T01:32:44.079Z,99.90
2019-03-18T01:35:12.667Z,99.90
2019-03-18T01:37:41.212Z,99.90
2019-03-18T01:40:14.279Z,99.90
2019-03-18T01:42:43.151Z,99.90
2019-03-18T01:45:12.215Z,99.90
2019-03-18T01:47:40.750Z,99.90
2019-03-18T01:50:15.472Z,99.90
2019-03-18T01:52:44.075Z,99.90
2019-03-18T01:55:12.739Z,99.90
2019-03-18T01:57:41.258Z,99.90
2019-03-18T02:00:12.091Z,99.90
2019-03-18T02:02:40.613Z,99.90
2019-03-18T02:05:10.394Z,99.90
2019-03-18T02:07:38.977Z,99.90
2019-03-18T02:10:10.183Z,99.90
2019-03-18T02:12:38.632Z,99.90
2019-03-18T02:15:09.886Z,99.90
2019-03-18T02:17:38.336Z,99.90
2019-03-18T02:20:09.862Z,99.90
2019-03-18T02:22:38.404Z,99.90
2019-03-18T02:25:08.559Z,99.90
2019-03-18T02:27:37.086Z,99.90
2019-03-18T02:30:08.479Z,99.90
2019-03-18T02:32:37.025Z,99.90
2019-03-18T02:35:05.788Z,99.90
2019-03-18T02:37:34.294Z,99.90
2019-03-18T02:40:02.900Z,99.90
2019-03-18T02:42:31.418Z,99.90
2019-03-18T02:44:59.886Z,99.90
2019-03-18T02:47:28.404Z,99.90
2019-03-18T02:49:56.947Z,99.90
2019-03-18T02:52:25.468Z,99.90
2019-03-18T02:54:54.074Z,99.90
2019-03-18T02:57:23.581Z,99.90
2019-03-18T02:59:52.092Z,99.90
2019-03-18T03:02:20.699Z,99.90
2019-03-18T03:04:49.219Z,99.90
2019-03-18T03:07:17.770Z,99.90
2019-03-18T03:09:46.285Z,99.90
2019-03-18T03:12:14.831Z,99.90
2019-03-18T03:14:43.346Z,99.90
2019-03-18T03:17:11.903Z,99.90
2019-03-18T03:19:40.415Z,99.90
2019-03-18T03:22:09.008Z,99.90
2019-03-18T03:24:37.555Z,99.90
2019-03-18T03:27:09.148Z,99.90
2019-03-18T03:29:37.690Z,99.90
2019-03-18T03:32:06.190Z,99.90
2019-03-18T03:34:34.684Z,99.90
2019-03-18T03:37:03.222Z,99.90
2019-03-18T03:39:31.741Z,99.90
2019-03-18T03:42:00.283Z,99.90
2019-03-18T03:44:28.807Z,99.90
2019-03-18T03:46:57.333Z,99.90
2019-03-18T03:49:25.874Z,99.90
2019-03-18T03:51:54.396Z,99.90
2019-03-18T03:54:22.936Z,99.90
2019-03-18T03:56:51.800Z,99.90
2019-03-18T03:59:20.339Z,99.90
2019-03-18T04:01:48.926Z,99.90
2019-03-18T04:04:17.402Z,99.90
2019-03-18T04:06:45.983Z,99.90
2019-03-18T04:09:14.523Z,99.90
2019-03-18T04:11:43.056Z,99.90
2019-03-18T04:14:11.655Z,99.90
2019-03-18T04:16:43.901Z,99.90
2019-03-18T04:19:10.450Z,99.90
2019-03-18T04:21:38.957Z,99.90
2019-03-18T04:24:07.492Z,99.90
2019-03-18T04:26:36.012Z,99.90
2019-03-18T04:29:04.697Z,99.90
2019-03-18T04:31:33.223Z,99.90
2019-03-18T04:34:01.736Z,99.90
2019-03-18T04:36:30.281Z,99.90
2019-03-18T04:38:58.799Z,99.90
2019-03-18T04:41:27.335Z,99.90
2019-03-18T04:43:55.778Z,99.90
2019-03-18T04:46:24.245Z,99.90
2019-03-18T04:48:52.773Z,99.90
2019-03-18T04:51:21.309Z,99.90
2019-03-18T04:53:49.831Z,99.90
2019-03-18T04:56:18.385Z,99.90
2019-03-18T04:58:46.903Z,99.90
2019-03-18T05:01:15.419Z,99.90
2019-03-18T05:03:43.886Z,99.90
2019-03-18T05:06:12.330Z,99.90
2019-03-18T05:08:40.796Z,99.90
2019-03-18T05:11:09.315Z,99.90
2019-03-18T05:13:37.935Z,99.90
2019-03-18T05:16:06.418Z,99.90
2019-03-18T05:18:36.672Z,99.90
2019-03-18T05:21:05.118Z,99.90
2019-03-18T05:23:33.639Z,99.90
2019-03-18T05:26:02.102Z,99.90
2019-03-18T05:28:30.624Z,99.90
2019-03-18T05:30:59.182Z,99.90
2019-03-18T05:33:27.681Z,99.90
2019-03-18T05:35:56.218Z,99.90
2019-03-18T05:38:24.663Z,99.90
2019-03-18T05:40:53.127Z,99.90
2019-03-18T05:43:21.655Z,99.90
2019-03-18T05:45:50.194Z,99.90
2019-03-18T05:48:18.775Z,99.90
2019-03-18T05:50:47.232Z,99.90
2019-03-18T05:53:15.762Z,99.90
2019-03-18T05:55:44.211Z,99.90
2019-03-18T05:58:12.763Z,99.90
2019-03-18T06:00:41.283Z,99.90
2019-03-18T06:03:09.828Z,99.90
2019-03-18T06:05:38.344Z,99.90
2019-03-18T06:08:06.886Z,99.90
2019-03-18T06:10:35.679Z,99.90
2019-03-18T06:13:04.201Z,99.90
2019-03-18T06:15:32.736Z,99.90
2019-03-18T06:18:01.340Z,99.90
2019-03-18T06:20:29.891Z,99.90
2019-03-18T06:22:58.584Z,99.90
2019-03-18T06:25:27.127Z,99.90
2019-03-18T06:27:55.647Z,99.90
2019-03-18T06:30:24.191Z,99.90
2019-03-18T06:32:52.879Z,99.90
2019-03-18T06:35:21.423Z,99.90
2019-03-18T06:37:49.938Z,99.90
2019-03-18T06:40:18.407Z,99.90
2019-03-18T06:42:46.931Z,99.90
2019-03-18T06:45:15.486Z,99.90
2019-03-18T06:47:44.007Z,99.90
2019-03-18T06:50:13.189Z,99.90
2019-03-18T06:52:41.710Z,99.90
2019-03-18T06:55:10.505Z,99.90
2019-03-18T06:57:39.022Z,99.90
2019-03-18T07:00:12.942Z,99.90
2019-03-18T07:02:41.414Z,99.90
2019-03-18T07:05:10.308Z,99.90
2019-03-18T07:07:38.843Z,99.90
2019-03-18T07:10:12.287Z,99.90
2019-03-18T07:12:40.822Z,99.90
2019-03-18T07:15:10.286Z,99.90
2019-03-18T07:17:38.822Z,99.90
2019-03-18T07:20:10.647Z,99.90
2019-03-18T07:22:39.251Z,99.90
2019-03-18T07:25:08.134Z,99.90
2019-03-18T07:27:36.599Z,99.90
2019-03-18T07:30:11.211Z,99.90
2019-03-18T07:32:39.836Z,99.90
2019-03-18T07:35:08.477Z,99.90
2019-03-18T07:37:37.083Z,99.90
2019-03-18T07:40:11.053Z,99.90
2019-03-18T07:42:38.783Z,99.90
2019-03-18T07:45:09.759Z,99.90
2019-03-18T07:47:38.283Z,99.90
2019-03-18T07:50:10.043Z,99.90
2019-03-18T07:52:38.561Z,99.90
2019-03-18T07:55:08.725Z,99.90
2019-03-18T07:57:37.259Z,99.90
2019-03-18T08:00:13.297Z,99.90
2019-03-18T08:02:41.834Z,99.90
2019-03-18T08:05:10.889Z,99.90
2019-03-18T08:07:39.574Z,99.90
2019-03-18T08:10:12.870Z,99.90
2019-03-18T08:12:41.459Z,99.90
2019-03-18T08:15:12.414Z,99.90
2019-03-18T08:17:40.934Z,99.90
2019-03-18T08:20:12.091Z,99.90
2019-03-18T08:22:40.750Z,99.90
2019-03-18T08:25:10.546Z,99.90
2019-03-18T08:27:39.065Z,99.90
2019-03-18T08:30:13.198Z,99.90
2019-03-18T08:32:41.774Z,99.90
2019-03-18T08:35:10.223Z,99.90
2019-03-18T08:37:38.830Z,99.90
2019-03-18T08:40:09.519Z,99.90
2019-03-18T08:42:38.059Z,99.90
2019-03-18T08:45:09.312Z,99.90
2019-03-18T08:47:37.919Z,99.90
2019-03-18T08:50:11.922Z,99.90
2019-03-18T08:52:39.269Z,99.90
2019-03-18T08:55:09.433Z,99.90
2019-03-18T08:57:38.022Z,99.90
2019-03-18T09:00:15.394Z,99.90
2019-03-18T09:02:43.992Z,99.90
2019-03-18T09:05:12.654Z,99.90
2019-03-18T09:07:41.107Z,99.90
2019-03-18T09:10:12.187Z,99.90
2019-03-18T09:12:40.702Z,99.90
2019-03-18T09:15:10.705Z,99.90
2019-03-18T09:17:39.291Z,99.90
2019-03-18T09:20:13.598Z,99.90
2019-03-18T09:22:42.167Z,99.90
2019-03-18T09:25:11.437Z,99.90
2019-03-18T09:27:39.873Z,99.90
2019-03-18T09:30:21.333Z,99.90
2019-03-18T09:32:49.920Z,99.90
2019-03-18T09:35:18.595Z,99.90
2019-03-18T09:37:47.199Z,99.90
2019-03-18T09:40:16.434Z,99.90
2019-03-18T09:42:44.986Z,99.90
2019-03-18T09:45:15.945Z,99.90
2019-03-18T09:47:44.526Z,99.90
2019-03-18T09:50:13.603Z,99.90
2019-03-18T09:52:42.128Z,99.90
2019-03-18T09:55:10.730Z,99.90
2019-03-18T09:57:39.290Z,99.90
2019-03-18T10:00:15.515Z,99.90
2019-03-18T10:02:44.125Z,99.90
2019-03-18T10:05:12.717Z,99.90
2019-03-18T10:07:41.246Z,99.90
2019-03-18T10:10:11.302Z,99.90
2019-03-18T10:12:39.782Z,99.90
2019-03-18T10:15:16.007Z,99.90
2019-03-18T10:17:44.483Z,99.90
2019-03-18T10:20:13.149Z,99.90
2019-03-18T10:22:41.763Z,99.90
2019-03-18T10:25:10.416Z,99.90
2019-03-18T10:27:38.950Z,99.90
2019-03-18T10:30:10.796Z,99.90
2019-03-18T10:32:39.324Z,99.90
2019-03-18T10:35:08.393Z,99.90
2019-03-18T10:37:36.931Z,99.90
2019-03-18T10:40:08.530Z,99.90
2019-03-18T10:42:37.145Z,99.90
2019-03-18T10:45:08.405Z,99.90
2019-03-18T10:47:37.014Z,99.90
2019-03-18T10:50:09.071Z,99.90
2019-03-18T10:52:37.566Z,99.90
2019-03-18T10:55:08.220Z,99.90
2019-03-18T10:57:36.739Z,99.90
2019-03-18T11:00:13.707Z,99.90
2019-03-18T11:02:44.792Z,99.90
2019-03-18T11:05:12.548Z,99.90
2019-03-18T11:07:41.159Z,99.90
2019-03-18T11:10:12.685Z,99.90
2019-03-18T11:12:41.530Z,99.90
2019-03-18T11:15:19.015Z,99.90
2019-03-18T11:17:47.623Z,99.90
2019-03-18T11:20:16.780Z,99.90
2019-03-18T11:22:45.327Z,99.90
2019-03-18T11:25:17.167Z,99.90
2019-03-18T11:27:45.704Z,99.90
2019-03-18T11:30:18.481Z,99.90
2019-03-18T11:32:47.202Z,99.90
2019-03-18T11:35:15.798Z,99.90
2019-03-18T11:37:44.360Z,99.90
2019-03-18T11:40:17.654Z,99.90
2019-03-18T11:42:46.260Z,99.90
2019-03-18T11:45:16.199Z,99.90
2019-03-18T11:47:44.867Z,99.90
2019-03-18T11:50:17.823Z,99.90
2019-03-18T11:52:46.546Z,99.90
2019-03-18T11:55:20.986Z,99.90
2019-03-18T11:57:49.583Z,99.90
2019-03-18T12:00:22.026Z,99.90
2019-03-18T12:02:50.579Z,99.90
2019-03-18T12:05:29.471Z,99.90
2019-03-18T12:07:58.017Z,99.90
2019-03-18T12:10:26.708Z,99.90
2019-03-18T12:12:55.236Z,99.90
2019-03-18T12:15:27.746Z,99.90
2019-03-18T12:17:56.358Z,99.90
2019-03-18T12:20:25.794Z,99.90
2019-03-18T12:22:54.777Z,99.90
2019-03-18T12:25:23.373Z,99.90
2019-03-18T12:27:51.891Z,99.90
2019-03-18T12:30:22.889Z,99.90
2019-03-18T12:32:51.486Z,99.90
2019-03-18T12:35:20.170Z,99.90
2019-03-18T12:37:48.779Z,99.90
2019-03-18T12:40:17.861Z,99.90
2019-03-18T12:42:46.528Z,99.90
2019-03-18T12:45:15.907Z,99.90
2019-03-18T12:47:44.522Z,99.90
2019-03-18T12:50:17.765Z,99.90
2019-03-18T12:52:46.268Z,99.90
2019-03-18T12:55:14.954Z,99.90
2019-03-18T12:57:43.483Z,99.90
2019-03-18T13:00:18.239Z,99.90
2019-03-18T13:02:46.899Z,99.90
2019-03-18T13:05:15.514Z,99.90
2019-03-18T13:07:44.212Z,99.90
2019-03-18T13:10:21.554Z,99.90
2019-03-18T13:12:50.171Z,99.90
2019-03-18T13:15:19.755Z,99.90
2019-03-18T13:17:48.285Z,99.90
2019-03-18T13:20:17.875Z,99.90
2019-03-18T13:22:46.495Z,99.90
2019-03-18T13:25:15.185Z,99.90
2019-03-18T13:27:43.782Z,99.90
2019-03-18T13:30:17.039Z,99.90
2019-03-18T13:32:45.641Z,99.90
2019-03-18T13:35:14.924Z,99.90
2019-03-18T13:37:43.512Z,99.90
2019-03-18T13:40:16.101Z,99.90
2019-03-18T13:42:44.754Z,99.90
2019-03-18T13:45:15.815Z,99.90
2019-03-18T13:47:44.419Z,99.90
2019-03-18T13:50:15.207Z,99.90
2019-03-18T13:52:43.997Z,99.90
2019-03-18T13:55:12.949Z,99.90
2019-03-18T13:57:41.507Z,99.90
2019-03-18T14:00:17.945Z,99.90
2019-03-18T14:02:46.725Z,99.90
2019-03-18T14:05:15.415Z,99.90
2019-03-18T14:07:44.093Z,99.90
2019-03-18T14:10:17.444Z,99.90
2019-03-18T14:12:46.046Z,99.90
2019-03-18T14:15:19.542Z,99.90
2019-03-18T14:17:48.140Z,99.90
2019-03-18T14:20:28.926Z,99.90
2019-03-18T14:22:57.523Z,99.90
2019-03-18T14:25:26.065Z,99.90
2019-03-18T14:27:54.523Z,99.90
2019-03-18T14:30:23.775Z,99.90
2019-03-18T14:32:52.299Z,99.90
2019-03-18T14:35:22.151Z,99.90
2019-03-18T14:37:50.950Z,99.90
2019-03-18T14:40:22.089Z,99.90
2019-03-18T14:42:50.639Z,99.90
2019-03-18T14:45:23.000Z,99.90
2019-03-18T14:47:51.616Z,99.90
2019-03-18T14:50:20.415Z,99.90
2019-03-18T14:52:49.178Z,99.90
2019-03-18T14:55:19.340Z,99.90
2019-03-18T14:57:47.956Z,98.90
2019-03-18T15:00:21.598Z,98.60
2019-03-18T15:02:50.369Z,98.00
2019-03-18T15:05:18.974Z,97.40
2019-03-18T15:07:47.646Z,97.40
2019-03-18T15:10:19.274Z,96.60
2019-03-18T15:12:47.803Z,96.60
2019-03-18T15:15:17.672Z,97.00
2019-03-18T15:17:46.359Z,97.20
2019-03-18T15:20:22.686Z,98.00
2019-03-18T15:22:51.312Z,97.40
2019-03-18T15:25:28.166Z,97.10
2019-03-18T15:27:56.785Z,96.30
2019-03-18T15:30:25.390Z,97.00
2019-03-18T15:32:54.014Z,97.40
2019-03-18T15:35:22.547Z,96.90
2019-03-18T15:37:51.076Z,96.90
2019-03-18T15:40:24.266Z,97.80
2019-03-18T15:42:52.798Z,99.90
2019-03-18T15:45:22.086Z,99.90
2019-03-18T15:47:50.760Z,99.90
2019-03-18T15:50:21.316Z,99.90
2019-03-18T15:52:49.905Z,99.90
2019-03-18T15:55:18.520Z,99.90
2019-03-18T15:57:47.106Z,99.90
2019-03-18T16:00:20.435Z,99.90
2019-03-18T16:02:48.947Z,99.90
2019-03-18T16:05:17.627Z,99.90
2019-03-18T16:07:46.225Z,99.90
2019-03-18T16:10:18.456Z,99.90
2019-03-18T16:12:46.997Z,99.90
2019-03-18T16:15:16.455Z,99.90
2019-03-18T16:17:44.994Z,99.90
2019-03-18T16:20:18.746Z,99.90
2019-03-18T16:22:47.210Z,99.90
2019-03-18T16:25:15.882Z,99.90
2019-03-18T16:27:44.504Z,99.90
2019-03-18T16:30:23.544Z,99.90
2019-03-18T16:32:52.080Z,99.90
2019-03-18T16:35:20.594Z,99.90
2019-03-18T16:37:49.134Z,99.90
2019-03-18T16:40:22.546Z,99.90
2019-03-18T16:42:51.154Z,99.90
2019-03-18T16:45:20.424Z,99.90
2019-03-18T16:47:48.970Z,99.90
2019-03-18T16:50:19.686Z,99.90
2019-03-18T16:52:48.294Z,99.90
2019-03-18T16:55:16.820Z,99.90
2019-03-18T16:57:45.427Z,99.90
2019-03-18T17:00:19.467Z,99.90
2019-03-18T17:02:48.135Z,99.90
2019-03-18T17:05:16.729Z,99.90
2019-03-18T17:07:45.407Z,99.90
2019-03-18T17:10:15.671Z,99.90
2019-03-18T17:12:44.443Z,99.90
2019-03-18T17:15:20.916Z,99.90
2019-03-18T17:17:49.592Z,99.90
2019-03-18T17:20:18.179Z,99.90
2019-03-18T17:22:50.471Z,99.90
2019-03-18T17:25:24.215Z,99.90
2019-03-18T17:27:52.758Z,99.90
2019-03-18T17:30:21.646Z,99.90
2019-03-18T17:32:50.191Z,99.90
2019-03-18T17:35:18.783Z,99.90
2019-03-18T17:37:47.327Z,99.90
2019-03-18T17:40:17.194Z,99.90
2019-03-18T17:42:45.661Z,99.90
2019-03-18T17:45:15.527Z,99.90
2019-03-18T17:47:44.142Z,99.90
2019-03-18T17:50:15.331Z,99.90
2019-03-18T17:52:43.934Z,99.90
2019-03-18T17:55:12.515Z,99.90
2019-03-18T17:57:41.175Z,99.90
2019-03-18T18:00:16.636Z,99.90
2019-03-18T18:02:45.317Z,99.90
2019-03-18T18:05:13.832Z,99.90
2019-03-18T18:07:42.444Z,99.90
2019-03-18T18:10:11.698Z,99.90
2019-03-18T18:12:40.235Z,99.90
2019-03-18T18:15:10.619Z,99.90
2019-03-18T18:17:39.164Z,99.90
2019-03-18T18:20:10.586Z,99.90
2019-03-18T18:22:41.003Z,99.90
2019-03-18T18:25:10.664Z,99.90
2019-03-18T18:27:39.212Z,99.90
2019-03-18T18:30:15.785Z,99.90
2019-03-18T18:32:44.318Z,99.90
2019-03-18T18:35:13.373Z,99.90
2019-03-18T18:37:41.987Z,99.90
2019-03-18T18:40:13.587Z,99.90
2019-03-18T18:42:42.114Z,99.90
2019-03-18T18:45:12.399Z,99.90
2019-03-18T18:47:40.923Z,99.90
2019-03-18T18:50:10.804Z,99.90
2019-03-18T18:52:39.328Z,99.90
2019-03-18T18:55:10.785Z,99.90
2019-03-18T18:57:39.322Z,99.90
2019-03-18T19:00:15.865Z,99.90
2019-03-18T19:02:44.448Z,99.90
2019-03-18T19:05:16.631Z,99.90
2019-03-18T19:07:45.291Z,99.90
2019-03-18T19:10:20.582Z,99.90
2019-03-18T19:12:49.535Z,99.90
2019-03-18T19:15:26.272Z,99.90
2019-03-18T19:17:54.858Z,99.90
2019-03-18T19:20:23.324Z,99.90
2019-03-18T19:22:51.843Z,99.90
2019-03-18T19:25:20.450Z,99.90
2019-03-18T19:27:49.114Z,99.90
2019-03-18T19:30:19.067Z,99.90
2019-03-18T19:32:47.816Z,99.90
2019-03-18T19:35:16.425Z,99.90
2019-03-18T19:37:45.010Z,99.90
2019-03-18T19:40:16.567Z,99.90
2019-03-18T19:42:45.096Z,99.90
2019-03-18T19:45:15.242Z,99.90
2019-03-18T19:47:43.832Z,99.90
2019-03-18T19:50:23.786Z,99.90
2019-03-18T19:52:52.450Z,99.90
2019-03-18T19:55:21.122Z,99.90
2019-03-18T19:57:49.718Z,99.90
2019-03-18T20:00:20.491Z,99.90
2019-03-18T20:02:49.146Z,99.90
2019-03-18T20:05:18.970Z,99.90
2019-03-18T20:07:48.619Z,99.90
2019-03-18T20:10:21.241Z,99.90
2019-03-18T20:12:49.914Z,99.90
2019-03-18T20:15:19.384Z,99.90
2019-03-18T20:17:48.056Z,99.90
2019-03-18T20:20:21.194Z,99.90
2019-03-18T20:22:49.778Z,99.90
2019-03-18T20:25:18.530Z,99.90
2019-03-18T20:27:47.093Z,99.90
2019-03-18T20:30:22.041Z,99.90
2019-03-18T20:32:50.689Z,99.90
2019-03-18T20:35:25.822Z,99.90
2019-03-18T20:37:54.274Z,99.90
2019-03-18T20:40:22.871Z,99.90
2019-03-18T20:42:51.447Z,99.90
2019-03-18T20:45:21.173Z,99.90
2019-03-18T20:47:49.798Z,99.90
2019-03-18T20:50:23.053Z,99.90
2019-03-18T20:52:51.711Z,99.90
2019-03-18T20:55:20.387Z,99.90
2019-03-18T20:57:48.903Z,99.90
2019-03-18T21:00:21.313Z,99.90
2019-03-18T21:02:49.959Z,99.90
2019-03-18T21:05:18.918Z,99.90
2019-03-18T21:07:47.476Z,99.90
2019-03-18T21:10:17.290Z,99.90
2019-03-18T21:12:45.940Z,99.90
2019-03-18T21:15:17.927Z,99.90
2019-03-18T21:17:46.574Z,99.90
2019-03-18T21:20:16.853Z,99.90
2019-03-18T21:22:45.375Z,99.90
2019-03-18T21:25:14.059Z,99.90
2019-03-18T21:27:42.583Z,99.90
2019-03-18T21:30:13.809Z,99.90
2019-03-18T21:32:42.419Z,99.90
2019-03-18T21:35:11.274Z,99.90
2019-03-18T21:37:39.754Z,99.90
2019-03-18T21:40:13.908Z,99.90
2019-03-18T21:42:42.461Z,99.90
2019-03-18T21:45:18.799Z,99.90
2019-03-18T21:47:47.278Z,99.90
2019-03-18T21:50:16.636Z,99.90
2019-03-18T21:52:45.440Z,99.90
2019-03-18T21:55:14.839Z,99.90
2019-03-18T21:57:43.500Z,99.90
2019-03-18T22:00:21.671Z,99.90
2019-03-18T22:02:50.269Z,99.90
2019-03-18T22:05:18.871Z,99.90
2019-03-18T22:07:47.464Z,99.90
2019-03-18T22:10:19.873Z,99.90
2019-03-18T22:12:48.719Z,99.90
2019-03-18T22:15:17.773Z,99.90
2019-03-18T22:17:46.442Z,99.90
2019-03-18T22:20:18.899Z,99.90
2019-03-18T22:22:47.516Z,99.90
2019-03-18T22:25:16.500Z,99.90
2019-03-18T22:28:04.447Z,99.90
2019-03-18T22:30:32.975Z,99.90
2019-03-18T22:33:01.427Z,99.90
2019-03-18T22:35:29.970Z,99.90
2019-03-18T22:37:58.559Z,99.90
2019-03-18T22:40:27.447Z,99.90
2019-03-18T22:42:55.922Z,99.90
2019-03-18T22:45:24.444Z,99.90
2019-03-18T22:47:52.967Z,99.90
2019-03-18T22:50:21.654Z,99.90
2019-03-18T22:52:50.175Z,99.90
2019-03-18T22:55:18.769Z,99.90
2019-03-18T22:57:47.306Z,99.90
2019-03-18T23:00:38.190Z,99.90
2019-03-18T23:03:06.807Z,99.90
2019-03-18T23:05:35.472Z,99.90
2019-03-18T23:08:04.759Z,99.90
2019-03-18T23:10:33.466Z,99.90
2019-03-18T23:13:02.008Z,99.90
2019-03-18T23:15:30.625Z,99.90
2019-03-18T23:17:59.172Z,99.90
2019-03-18T23:20:27.619Z,99.90
2019-03-18T23:22:56.145Z,99.90
2019-03-18T23:25:24.688Z,99.90
2019-03-18T23:27:53.207Z,99.90
2019-03-18T23:30:21.744Z,99.90
2019-03-18T23:32:50.336Z,99.90
2019-03-18T23:35:18.854Z,99.90
2019-03-18T23:37:47.394Z,99.90
2019-03-18T23:40:15.906Z,99.90
2019-03-18T23:42:44.354Z,99.90
2019-03-18T23:45:13.224Z,99.90
2019-03-18T23:47:41.817Z,99.90
2019-03-18T23:50:12.480Z,99.90
2019-03-18T23:52:41.151Z,99.90
2019-03-18T23:55:18.984Z,99.90
2019-03-18T23:57:40.606Z,99.90
